createdAt,value
2022-09-09T00:02:02.569Z,5.20
2022-09-09T00:04:33.617Z,5.87
2022-09-09T00:07:07.668Z,5.40
2022-09-09T00:09:43.571Z,5.77
2022-09-09T00:12:15.163Z,5.00
2022-09-09T00:14:52.579Z,6.00
2022-09-09T00:17:35.657Z,5.03
2022-09-09T00:20:14.343Z,5.63
2022-09-09T00:22:48.615Z,6.23
2022-09-09T00:25:25.554Z,5.83
2022-09-09T00:27:55.640Z,5.90
2022-09-09T00:30:26.522Z,5.50
2022-09-09T00:33:05.216Z,5.53
2022-09-09T00:35:39.474Z,5.47
2022-09-09T00:38:15.643Z,5.70
2022-09-09T00:40:51.707Z,6.07
2022-09-09T00:43:31.027Z,5.60
2022-09-09T00:46:19.917Z,5.57
2022-09-09T00:48:57.609Z,5.80
2022-09-09T00:51:37.508Z,5.27
2022-09-09T00:54:33.518Z,5.67
2022-09-09T00:57:14.611Z,5.90
2022-09-09T00:59:51.666Z,5.87
2022-09-09T01:02:30.631Z,5.90
2022-09-09T01:05:08.569Z,5.80
2022-09-09T01:07:37.598Z,5.60
2022-09-09T01:10:13.538Z,5.80
2022-09-09T01:12:44.773Z,6.00
2022-09-09T01:15:26.487Z,5.70
2022-09-09T01:18:02.349Z,5.67
2022-09-09T01:20:50.527Z,6.23
2022-09-09T01:23:40.586Z,6.07
2022-09-09T01:26:39.603Z,5.53
2022-09-09T01:29:15.579Z,6.20
2022-09-09T01:31:56.319Z,6.20
2022-09-09T01:34:27.633Z,6.17
2022-09-09T01:37:00.497Z,5.70
2022-09-09T01:39:31.677Z,6.40
2022-09-09T01:42:06.551Z,6.07
2022-09-09T01:44:36.606Z,6.03
2022-09-09T01:47:05.706Z,6.90
2022-09-09T01:49:35.659Z,6.03
2022-09-09T01:52:11.676Z,6.77
2022-09-09T01:54:41.594Z,6.80
2022-09-09T01:57:22.355Z,6.80
2022-09-09T02:00:05.035Z,6.43
2022-09-09T02:02:51.892Z,6.47
2022-09-09T02:05:41.612Z,6.80
2022-09-09T02:08:23.623Z,7.10
2022-09-09T02:11:03.847Z,6.33
2022-09-09T02:13:47.353Z,6.13
2022-09-09T02:16:23.677Z,6.47
2022-09-09T02:18:59.407Z,7.00
2022-09-09T02:21:48.635Z,6.10
2022-09-09T02:24:18.771Z,6.60
2022-09-09T02:26:58.058Z,6.97
2022-09-09T02:29:30.901Z,6.90
2022-09-09T02:32:06.750Z,6.70
2022-09-09T02:34:44.643Z,6.97
2022-09-09T02:37:14.641Z,6.60
2022-09-09T02:39:47.590Z,7.07
2022-09-09T02:42:22.199Z,7.33
2022-09-09T02:44:53.575Z,7.17
2022-09-09T02:47:40.401Z,7.60
2022-09-09T02:50:18.572Z,7.63
2022-09-09T02:53:02.633Z,7.77
2022-09-09T02:55:42.883Z,7.27
2022-09-09T02:58:17.967Z,7.90
2022-09-09T03:00:55.690Z,7.27
2022-09-09T03:03:24.752Z,7.53
2022-09-09T03:05:53.921Z,7.60
2022-09-09T03:08:28.795Z,7.67
2022-09-09T03:11:02.376Z,7.80
2022-09-09T03:13:38.881Z,7.60
2022-09-09T03:16:09.033Z,7.13
2022-09-09T03:18:43.748Z,7.43
2022-09-09T03:21:12.082Z,7.83
2022-09-09T03:23:41.681Z,7.37
2022-09-09T03:26:10.567Z,7.13
2022-09-09T03:28:45.776Z,7.77
2022-09-09T03:31:19.273Z,7.67
2022-09-09T03:33:51.991Z,7.20
2022-09-09T03:36:22.577Z,7.23
2022-09-09T03:38:51.748Z,6.80
2022-09-09T03:41:20.572Z,6.67
2022-09-09T03:43:48.901Z,6.87
2022-09-09T03:46:19.985Z,6.90
2022-09-09T03:48:48.573Z,6.70
2022-09-09T03:51:17.997Z,6.87
2022-09-09T03:53:46.589Z,6.27
2022-09-09T03:56:15.760Z,7.20
2022-09-09T03:58:47.662Z,12.70
2022-09-09T04:01:19.008Z,7.27
2022-09-09T04:03:48.708Z,6.67
2022-09-09T04:06:18.962Z,7.00
2022-09-09T04:08:50.528Z,6.17
2022-09-09T04:11:21.592Z,6.83
2022-09-09T04:13:52.679Z,6.60
2022-09-09T04:16:23.885Z,6.07
2022-09-09T04:18:54.211Z,6.80
2022-09-09T04:21:22.604Z,6.07
2022-09-09T04:23:52.298Z,6.60
2022-09-09T04:26:22.073Z,6.47
2022-09-09T04:28:53.364Z,5.90
2022-09-09T04:31:24.933Z,14.43
2022-09-09T04:33:59.750Z,9.67
2022-09-09T04:36:28.704Z,7.10
2022-09-09T04:39:02.603Z,5.97
2022-09-09T04:41:32.429Z,5.53
2022-09-09T04:44:04.416Z,5.63
2022-09-09T04:46:36.310Z,5.53
2022-09-09T04:49:04.725Z,5.17
2022-09-09T04:51:34.307Z,5.27
2022-09-09T04:54:04.720Z,5.20
2022-09-09T04:56:33.587Z,5.10
2022-09-09T04:59:04.102Z,4.80
2022-09-09T05:01:56.235Z,4.60
2022-09-09T05:04:24.734Z,4.67
2022-09-09T05:06:53.725Z,5.43
2022-09-09T05:09:21.711Z,4.57
2022-09-09T05:11:50.708Z,5.17
2022-09-09T05:14:26.053Z,5.27
2022-09-09T05:16:56.911Z,5.00
2022-09-09T05:19:25.619Z,4.77
2022-09-09T05:21:55.736Z,4.70
2022-09-09T05:24:30.410Z,5.00
2022-09-09T05:27:01.652Z,4.70
2022-09-09T05:29:30.019Z,4.50
2022-09-09T05:32:00.456Z,5.70
2022-09-09T05:34:28.465Z,5.30
2022-09-09T05:36:56.717Z,5.23
2022-09-09T05:39:26.762Z,4.60
2022-09-09T05:41:55.644Z,4.97
2022-09-09T05:44:28.599Z,4.40
2022-09-09T05:46:59.071Z,4.97
2022-09-09T05:49:28.792Z,4.40
2022-09-09T05:51:57.776Z,4.47
2022-09-09T05:54:26.311Z,3.93
2022-09-09T05:56:57.746Z,4.03
2022-09-09T05:59:26.742Z,4.23
2022-09-09T06:02:01.163Z,4.00
2022-09-09T06:04:37.752Z,4.47
2022-09-09T06:07:10.828Z,4.10
2022-09-09T06:09:39.646Z,4.07
2022-09-09T06:12:11.004Z,4.07
2022-09-09T06:14:46.052Z,4.43
2022-09-09T06:17:15.758Z,3.60
2022-09-09T06:19:45.787Z,4.00
2022-09-09T06:22:14.767Z,4.40
2022-09-09T06:24:47.434Z,4.30
2022-09-09T06:27:15.517Z,4.13
2022-09-09T06:29:44.759Z,4.17
2022-09-09T06:32:13.349Z,3.90
2022-09-09T06:34:42.772Z,4.03
2022-09-09T06:37:15.502Z,4.20
2022-09-09T06:39:49.400Z,4.30
2022-09-09T06:42:22.033Z,3.67
2022-09-09T06:44:50.769Z,4.30
2022-09-09T06:47:30.139Z,4.33
2022-09-09T06:50:00.671Z,4.80
2022-09-09T06:52:30.871Z,4.87
2022-09-09T06:55:00.674Z,4.20
2022-09-09T06:57:44.154Z,4.90
2022-09-09T07:00:19.304Z,4.80
2022-09-09T07:02:47.755Z,4.50
2022-09-09T07:05:16.697Z,4.83
2022-09-09T07:07:51.677Z,4.70
2022-09-09T07:10:21.687Z,4.90
2022-09-09T07:12:54.139Z,4.87
2022-09-09T07:15:28.705Z,4.73
2022-09-09T07:17:57.474Z,5.33
2022-09-09T07:20:25.464Z,5.30
2022-09-09T07:22:59.507Z,5.60
2022-09-09T07:25:30.681Z,5.07
2022-09-09T07:27:59.793Z,5.03
2022-09-09T07:30:29.934Z,5.70
2022-09-09T07:33:00.275Z,5.50
2022-09-09T07:35:28.899Z,4.90
2022-09-09T07:37:59.322Z,5.70
2022-09-09T07:40:27.553Z,5.37
2022-09-09T07:42:55.821Z,5.47
2022-09-09T07:45:29.323Z,5.70
2022-09-09T07:47:58.841Z,6.13
2022-09-09T07:50:27.731Z,5.90
2022-09-09T07:52:57.705Z,6.30
2022-09-09T07:55:32.155Z,6.70
2022-09-09T07:58:00.786Z,6.93
2022-09-09T08:00:29.083Z,6.40
2022-09-09T08:03:03.288Z,6.60
2022-09-09T08:05:32.814Z,6.40
2022-09-09T08:08:01.722Z,6.80
2022-09-09T08:10:31.811Z,6.67
2022-09-09T08:13:17.286Z,6.63
2022-09-09T08:15:47.498Z,7.00
2022-09-09T08:18:17.432Z,7.07
2022-09-09T08:20:46.826Z,7.33
2022-09-09T08:23:15.988Z,6.97
2022-09-09T08:25:46.585Z,7.57
2022-09-09T08:28:16.992Z,7.47
2022-09-09T08:30:49.131Z,7.53
2022-09-09T08:33:21.832Z,7.73
2022-09-09T08:35:54.062Z,7.90
2022-09-09T08:38:22.749Z,7.77
2022-09-09T08:41:02.115Z,8.33
2022-09-09T08:43:33.575Z,7.40
2022-09-09T08:46:09.443Z,8.27
2022-09-09T08:48:49.929Z,7.47
2022-09-09T08:51:18.875Z,7.90
2022-09-09T08:53:55.410Z,8.27
2022-09-09T08:56:35.886Z,9.10
2022-09-09T08:59:06.764Z,8.27
2022-09-09T09:02:00.146Z,8.50
2022-09-09T09:04:46.736Z,8.97
2022-09-09T09:07:29.548Z,8.80
2022-09-09T09:10:18.931Z,8.20
2022-09-09T09:13:01.041Z,8.67
2022-09-09T09:15:38.235Z,8.50
2022-09-09T09:18:07.899Z,10.33
2022-09-09T09:20:47.799Z,9.33
2022-09-09T09:23:24.370Z,10.07
2022-09-09T09:26:00.122Z,9.90
2022-09-09T09:28:32.059Z,9.83
2022-09-09T09:31:09.920Z,10.10
2022-09-09T09:33:51.082Z,10.33
2022-09-09T09:36:23.141Z,10.73
2022-09-09T09:41:54.136Z,11.30
2022-09-09T09:44:28.346Z,11.40
2022-09-09T09:47:11.849Z,10.60
2022-09-09T09:49:41.766Z,11.63
2022-09-09T09:52:22.947Z,10.87
2022-09-09T09:54:52.828Z,11.00
2022-09-09T09:57:30.261Z,11.10
2022-09-09T10:00:14.864Z,10.83
2022-09-09T10:02:45.864Z,10.80
2022-09-09T10:05:26.926Z,11.73
2022-09-09T10:08:05.889Z,11.67
2022-09-09T10:11:01.895Z,11.13
2022-09-09T10:13:37.479Z,11.67
2022-09-09T10:16:22.042Z,11.17
2022-09-09T10:19:01.023Z,11.80
2022-09-09T10:21:56.601Z,11.03
2022-09-09T10:25:03.890Z,12.17
2022-09-09T10:27:40.790Z,12.17
2022-09-09T10:30:19.909Z,12.07
2022-09-09T10:32:54.783Z,13.30
2022-09-09T10:35:31.313Z,12.40
2022-09-09T10:38:24.311Z,13.53
2022-09-09T10:41:18.727Z,12.60
2022-09-09T10:44:17.104Z,13.53
2022-09-09T10:47:02.146Z,13.57
2022-09-09T10:49:55.916Z,13.30
2022-09-09T10:52:32.766Z,14.10
2022-09-09T10:55:09.972Z,14.93
2022-09-09T10:57:44.891Z,16.87
2022-09-09T11:00:22.470Z,14.23
2022-09-09T11:02:55.927Z,14.80
2022-09-09T11:05:32.826Z,14.00
2022-09-09T11:08:05.912Z,14.20
2022-09-09T11:10:46.220Z,14.13
2022-09-09T11:13:19.899Z,14.27
2022-09-09T11:15:55.444Z,14.67
2022-09-09T11:18:25.917Z,14.17
2022-09-09T11:21:02.268Z,15.30
2022-09-09T11:23:41.996Z,15.40
2022-09-09T11:26:15.938Z,16.37
2022-09-09T11:29:06.251Z,18.83
2022-09-09T11:31:46.848Z,17.90
2022-09-09T11:34:29.979Z,19.07
2022-09-09T11:37:42.841Z,40.07
2022-09-09T11:40:20.196Z,21.90
2022-09-09T11:42:51.834Z,19.17
2022-09-09T11:45:28.299Z,19.10
2022-09-09T11:47:57.941Z,18.57
2022-09-09T11:50:39.274Z,19.20
2022-09-09T11:53:27.478Z,18.57
2022-09-09T11:56:15.853Z,18.27
2022-09-09T11:58:56.398Z,18.10
2022-09-09T12:01:44.056Z,18.03
2022-09-09T12:04:35.952Z,18.47
2022-09-09T12:07:11.034Z,19.83
2022-09-09T12:09:53.823Z,18.53
2022-09-09T12:12:27.977Z,18.60
2022-09-09T12:15:18.892Z,19.20
2022-09-09T12:17:50.347Z,19.63
2022-09-09T12:20:26.222Z,19.40
2022-09-09T12:23:22.276Z,20.97
2022-09-09T12:26:02.022Z,21.20
2022-09-09T12:28:55.009Z,20.80
2022-09-09T12:31:28.000Z,21.40
2022-09-09T12:33:56.687Z,32.50
2022-09-09T12:36:34.458Z,22.87
2022-09-09T12:39:18.972Z,21.60
2022-09-09T12:41:57.751Z,21.80
2022-09-09T12:44:29.061Z,22.77
2022-09-09T12:47:04.966Z,24.43
2022-09-09T12:49:37.899Z,22.60
2022-09-09T12:52:15.967Z,22.30
2022-09-09T12:55:11.442Z,22.80
2022-09-09T12:57:42.005Z,22.50
2022-09-09T13:00:18.423Z,23.70
2022-09-09T13:03:00.030Z,22.50
2022-09-09T13:05:31.055Z,22.77
2022-09-09T13:08:08.483Z,24.30
2022-09-09T13:11:01.831Z,23.67
2022-09-09T13:13:36.853Z,21.17
2022-09-09T13:16:09.823Z,20.27
2022-09-09T13:18:39.594Z,20.80
2022-09-09T13:21:09.007Z,21.40
2022-09-09T13:23:40.123Z,33.60
2022-09-09T13:26:26.322Z,23.97
2022-09-09T13:28:57.068Z,20.10
2022-09-09T13:31:35.035Z,20.13
2022-09-09T13:34:15.147Z,21.83
2022-09-09T13:36:45.858Z,21.97
2022-09-09T13:39:19.893Z,20.23
2022-09-09T13:41:51.027Z,21.17
2022-09-09T13:44:25.187Z,20.23
2022-09-09T13:47:09.389Z,29.20
2022-09-09T13:49:38.912Z,20.73
2022-09-09T13:52:12.476Z,20.03
2022-09-09T13:54:40.676Z,21.10
2022-09-09T13:57:19.483Z,20.63
2022-09-09T14:00:06.833Z,21.17
2022-09-09T14:02:39.818Z,21.43
2022-09-09T14:05:09.487Z,21.30
2022-09-09T14:07:39.349Z,20.03
2022-09-09T14:10:08.909Z,21.87
2022-09-09T14:12:40.697Z,22.07
2022-09-09T14:15:13.931Z,21.30
2022-09-09T14:17:47.382Z,21.00
2022-09-09T14:20:16.438Z,20.50
2022-09-09T14:22:45.457Z,21.30
2022-09-09T14:25:15.912Z,21.67
2022-09-09T14:27:44.438Z,21.07
2022-09-09T14:30:14.924Z,21.33
2022-09-09T14:32:43.713Z,20.07
2022-09-09T14:35:12.709Z,19.90
2022-09-09T14:37:41.189Z,19.80
2022-09-09T14:40:09.770Z,19.90
2022-09-09T14:42:42.295Z,20.77
2022-09-09T14:45:11.108Z,19.97
2022-09-09T14:47:41.060Z,20.10
2022-09-09T14:50:10.031Z,19.93
2022-09-09T14:52:39.065Z,21.00
2022-09-09T14:55:12.269Z,21.70
2022-09-09T14:57:41.263Z,20.47
2022-09-09T15:00:19.879Z,19.73
2022-09-09T15:02:50.012Z,20.13
2022-09-09T15:05:19.657Z,19.67
2022-09-09T15:07:49.401Z,19.63
2022-09-09T15:10:18.209Z,19.63
2022-09-09T15:12:49.779Z,20.30
2022-09-09T15:15:18.272Z,20.47
2022-09-09T15:17:46.180Z,20.33
2022-09-09T15:20:41.059Z,19.77
2022-09-09T15:23:10.069Z,19.37
2022-09-09T15:25:39.107Z,19.67
2022-09-09T15:28:07.128Z,19.83
2022-09-09T15:30:37.245Z,20.07
2022-09-09T15:33:14.128Z,19.73
2022-09-09T15:35:47.057Z,19.57
2022-09-09T15:38:16.236Z,19.87
2022-09-09T15:40:45.061Z,19.67
2022-09-09T15:43:14.132Z,20.23
2022-09-09T15:45:42.097Z,20.40
2022-09-09T15:48:14.107Z,20.87
2022-09-09T15:50:42.070Z,23.87
2022-09-09T15:53:12.355Z,22.30
2022-09-09T15:55:40.976Z,21.77
2022-09-09T15:58:32.789Z,21.17
2022-09-09T16:01:06.385Z,20.80
2022-09-09T16:03:41.654Z,20.80
2022-09-09T16:06:14.282Z,20.77
2022-09-09T16:08:50.847Z,20.57
2022-09-09T16:11:22.418Z,26.20
2022-09-09T16:13:55.625Z,21.27
2022-09-09T16:16:26.049Z,19.30
2022-09-09T16:19:00.084Z,19.47
2022-09-09T16:21:30.848Z,19.43
2022-09-09T16:24:01.798Z,19.63
2022-09-09T16:26:32.382Z,18.93
2022-09-09T16:29:04.240Z,20.40
2022-09-09T16:31:33.048Z,19.07
2022-09-09T16:34:05.742Z,18.33
2022-09-09T16:36:41.418Z,17.83
2022-09-09T16:39:14.068Z,18.60
2022-09-09T16:41:48.254Z,18.07
2022-09-09T16:44:21.971Z,18.13
2022-09-09T16:46:59.656Z,18.53
2022-09-09T16:49:34.412Z,18.20
2022-09-09T16:52:02.761Z,17.00
2022-09-09T16:54:34.172Z,22.70
2022-09-09T16:57:06.126Z,18.60
2022-09-09T16:59:34.148Z,18.33
2022-09-09T17:02:06.099Z,17.13
2022-09-09T17:04:34.429Z,18.27
2022-09-09T17:07:06.298Z,18.40
2022-09-09T17:09:38.555Z,21.83
2022-09-09T17:12:09.514Z,18.63
2022-09-09T17:14:42.000Z,19.47
2022-09-09T17:17:30.758Z,19.57
2022-09-09T17:20:00.142Z,19.20
2022-09-09T17:22:52.659Z,19.27
2022-09-09T17:25:25.889Z,19.30
2022-09-09T17:27:57.087Z,19.53
2022-09-09T17:30:26.318Z,18.90
2022-09-09T17:32:55.135Z,18.30
2022-09-09T17:35:24.180Z,18.80
2022-09-09T17:37:52.186Z,18.60
2022-09-09T17:40:23.232Z,18.77
2022-09-09T17:42:52.177Z,18.53
2022-09-09T17:45:21.012Z,18.50
2022-09-09T17:47:50.657Z,16.47
2022-09-09T17:50:22.271Z,17.23
2022-09-09T17:52:54.074Z,18.47
2022-09-09T17:55:24.167Z,17.63
2022-09-09T17:57:53.149Z,16.53
2022-09-09T18:00:22.045Z,18.67
2022-09-09T18:02:54.261Z,18.17
2022-09-09T18:05:22.734Z,21.27
2022-09-09T18:07:51.277Z,26.37
2022-09-09T18:10:20.151Z,16.83
2022-09-09T18:12:50.148Z,16.90
2022-09-09T18:15:39.195Z,17.07
2022-09-09T18:18:15.489Z,19.63
2022-09-09T18:20:46.264Z,16.60
2022-09-09T18:23:15.084Z,16.37
2022-09-09T18:25:44.371Z,16.50
2022-09-09T18:28:14.207Z,16.00
2022-09-09T18:30:46.492Z,16.10
2022-09-09T18:33:15.841Z,15.80
2022-09-09T18:35:44.121Z,16.70
2022-09-09T18:38:13.242Z,16.80
2022-09-09T18:40:42.437Z,16.33
2022-09-09T18:43:14.195Z,15.43
2022-09-09T18:45:44.422Z,15.33
2022-09-09T18:48:13.174Z,14.80
2022-09-09T18:50:41.223Z,14.97
2022-09-09T18:53:10.868Z,15.57
2022-09-09T18:55:38.892Z,16.07
2022-09-09T18:58:13.783Z,15.77
2022-09-09T19:00:47.453Z,16.13
2022-09-09T19:03:17.891Z,16.80
2022-09-09T19:05:46.169Z,15.70
2022-09-09T19:08:15.324Z,17.93
2022-09-09T19:10:43.267Z,15.50
2022-09-09T19:13:18.269Z,14.30
2022-09-09T19:15:48.294Z,13.33
2022-09-09T19:18:17.222Z,13.97
2022-09-09T19:20:47.105Z,14.73
2022-09-09T19:23:16.205Z,14.10
2022-09-09T19:25:46.394Z,14.07
2022-09-09T19:28:15.199Z,13.80
2022-09-09T19:30:50.092Z,13.63
2022-09-09T19:33:23.197Z,13.77
2022-09-09T19:36:02.480Z,14.87
2022-09-09T19:38:31.300Z,13.73
2022-09-09T19:41:05.792Z,13.97
2022-09-09T19:43:37.556Z,14.23
2022-09-09T19:46:08.173Z,13.53
2022-09-09T19:48:39.327Z,11.67
2022-09-09T19:51:09.556Z,11.73
2022-09-09T19:53:39.379Z,12.50
2022-09-09T19:56:10.296Z,13.90
2022-09-09T19:58:45.477Z,13.23
2022-09-09T20:01:15.786Z,11.57
2022-09-09T20:03:54.263Z,11.40
2022-09-09T20:06:24.804Z,11.83
2022-09-09T20:08:53.329Z,11.67
2022-09-09T20:11:22.246Z,11.23
2022-09-09T20:13:51.051Z,11.87
2022-09-09T20:16:23.674Z,12.20
2022-09-09T20:18:55.126Z,12.80
2022-09-09T20:21:30.472Z,14.63
2022-09-09T20:24:00.243Z,14.57
2022-09-09T20:26:34.337Z,13.80
2022-09-09T20:29:07.706Z,12.17
2022-09-09T20:31:41.832Z,12.50
2022-09-09T20:34:18.530Z,12.07
2022-09-09T20:36:51.392Z,11.03
2022-09-09T20:39:22.314Z,11.07
2022-09-09T20:41:51.243Z,11.33
2022-09-09T20:44:21.875Z,11.40
2022-09-09T20:46:52.685Z,11.27
2022-09-09T20:49:24.475Z,11.83
2022-09-09T20:51:54.263Z,11.40
2022-09-09T20:54:30.340Z,11.10
2022-09-09T20:56:59.918Z,10.90
2022-09-09T20:59:33.882Z,10.33
2022-09-09T21:02:06.534Z,10.20
2022-09-09T21:04:42.312Z,10.47
2022-09-09T21:07:14.377Z,10.90
2022-09-09T21:09:43.253Z,10.40
2022-09-09T21:12:12.261Z,10.43
2022-09-09T21:14:41.265Z,10.97
2022-09-09T21:17:11.111Z,13.90
2022-09-09T21:19:43.164Z,11.47
2022-09-09T21:22:14.208Z,10.73
2022-09-09T21:24:42.201Z,10.80
2022-09-09T21:27:11.246Z,10.40
2022-09-09T21:29:39.242Z,10.77
2022-09-09T21:32:08.249Z,10.83
2022-09-09T21:34:37.282Z,10.43
2022-09-09T21:37:11.766Z,10.17
2022-09-09T21:39:41.196Z,10.47
2022-09-09T21:42:34.630Z,10.93
2022-09-09T21:45:02.621Z,11.40
2022-09-09T21:47:34.285Z,10.63
2022-09-09T21:50:03.183Z,10.57
2022-09-09T21:52:33.249Z,10.87
2022-09-09T21:55:02.165Z,10.60
2022-09-09T21:57:30.302Z,11.23
2022-09-09T22:00:01.336Z,10.73
2022-09-09T22:02:30.374Z,10.50
2022-09-09T22:05:00.202Z,10.50
2022-09-09T22:07:29.255Z,13.97
2022-09-09T22:10:02.386Z,13.77
2022-09-09T22:12:34.408Z,10.30
2022-09-09T22:15:03.543Z,11.00
2022-09-09T22:17:32.330Z,11.27
2022-09-09T22:20:00.594Z,10.17
2022-09-09T22:22:34.276Z,10.70
2022-09-09T22:25:03.624Z,9.73
2022-09-09T22:27:32.240Z,9.73
2022-09-09T22:30:00.500Z,9.60
2022-09-09T22:32:29.687Z,10.00
2022-09-09T22:35:22.281Z,9.57
2022-09-09T22:37:54.227Z,9.77
2022-09-09T22:40:27.257Z,8.90
2022-09-09T22:42:57.021Z,9.50
2022-09-09T22:45:25.114Z,9.73
2022-09-09T22:47:53.358Z,10.20
2022-09-09T22:50:21.376Z,10.07
2022-09-09T22:52:54.291Z,10.03
2022-09-09T22:55:22.905Z,10.83
2022-09-09T22:57:53.296Z,9.27
2022-09-09T23:00:22.194Z,8.50
2022-09-09T23:02:51.586Z,8.83
2022-09-09T23:05:24.587Z,8.13
2022-09-09T23:07:53.690Z,8.60
2022-09-09T23:10:22.405Z,8.30
2022-09-09T23:12:51.264Z,8.77
2022-09-09T23:15:24.606Z,8.90
2022-09-09T23:17:54.885Z,8.30
2022-09-09T23:20:26.023Z,8.63
2022-09-09T23:22:57.350Z,8.47
2022-09-09T23:25:25.264Z,8.27
2022-09-09T23:27:54.392Z,8.03
2022-09-09T23:30:24.237Z,8.13
2022-09-09T23:32:55.927Z,8.70
2022-09-09T23:35:26.617Z,11.97
2022-09-09T23:37:55.317Z,8.23
2022-09-09T23:40:25.361Z,7.43
2022-09-09T23:42:55.493Z,7.30
2022-09-09T23:45:28.419Z,7.37
2022-09-09T23:47:57.365Z,7.37
2022-09-09T23:50:25.283Z,7.23
2022-09-09T23:52:58.862Z,7.03
2022-09-09T23:55:26.798Z,6.37
2022-09-09T23:57:56.464Z,6.47
